createdAt,value
2023-05-05T00:03:53.119Z,10.80
2023-05-05T00:12:01.089Z,9.82
2023-05-05T00:20:07.253Z,9.75
2023-05-05T00:28:15.504Z,10.50
2023-05-05T00:36:20.915Z,12.32
2023-05-05T00:44:45.132Z,9.38
2023-05-05T00:52:50.658Z,11.07
2023-05-05T01:00:58.686Z,12.50
2023-05-05T01:09:13.215Z,11.00
2023-05-05T01:17:24.990Z,10.85
2023-05-05T01:25:53.517Z,11.18
2023-05-05T01:34:07.172Z,9.80
2023-05-05T01:42:16.458Z,8.48
2023-05-05T01:50:25.779Z,10.30
2023-05-05T01:58:33.066Z,11.27
2023-05-05T02:06:43.057Z,10.60
2023-05-05T02:14:49.964Z,12.05
2023-05-05T02:22:58.917Z,13.35
2023-05-05T02:31:05.740Z,13.18
2023-05-05T02:39:17.410Z,12.13
2023-05-05T02:47:24.264Z,13.70
2023-05-05T02:55:40.089Z,20.48
2023-05-05T03:03:50.237Z,20.90
2023-05-05T03:12:05.016Z,19.33
2023-05-05T03:20:18.360Z,18.25
2023-05-05T03:28:29.503Z,16.73
2023-05-05T03:36:38.319Z,13.60
2023-05-05T03:44:48.743Z,13.82
2023-05-05T03:52:54.571Z,12.82
2023-05-05T04:01:03.011Z,12.32
2023-05-05T04:09:09.063Z,14.07
2023-05-05T04:17:18.862Z,15.15
2023-05-05T04:25:24.416Z,17.25
2023-05-05T04:33:32.730Z,20.15
2023-05-05T04:41:38.352Z,19.35
2023-05-05T04:49:46.669Z,21.23
2023-05-05T04:57:52.171Z,18.50
2023-05-05T05:06:00.533Z,17.40
2023-05-05T05:14:06.115Z,16.15
2023-05-05T05:22:14.741Z,15.70
2023-05-05T05:30:22.021Z,17.00
2023-05-05T05:38:30.368Z,15.98
2023-05-05T05:46:39.005Z,16.10
2023-05-05T05:54:47.486Z,19.70
2023-05-05T06:02:53.408Z,17.50
2023-05-05T06:11:05.468Z,16.55
2023-05-05T06:19:11.404Z,15.88
2023-05-05T06:27:19.802Z,14.57
2023-05-05T06:35:28.054Z,11.93
2023-05-05T06:43:36.199Z,11.30
2023-05-05T06:51:46.204Z,10.63
2023-05-05T06:59:54.214Z,9.73
2023-05-05T07:08:00.225Z,8.68
2023-05-05T07:16:08.910Z,9.18
2023-05-05T07:24:18.095Z,8.07
2023-05-05T07:32:26.263Z,8.63
2023-05-05T07:40:31.705Z,7.15
2023-05-05T07:48:41.835Z,7.00
2023-05-05T07:56:48.881Z,6.55
2023-05-05T08:04:56.936Z,6.95
2023-05-05T08:13:02.521Z,6.43
2023-05-05T08:21:11.437Z,4.95
2023-05-05T08:29:22.364Z,5.85
2023-05-05T08:37:30.779Z,5.47
2023-05-05T08:45:36.434Z,5.10
2023-05-05T08:53:54.491Z,5.00
2023-05-05T09:02:00.694Z,4.75
2023-05-05T09:10:12.595Z,3.25
2023-05-05T09:18:18.207Z,2.05
2023-05-05T09:26:26.669Z,3.75
2023-05-05T09:34:33.187Z,2.72
2023-05-05T09:42:45.013Z,3.10
2023-05-05T09:50:50.744Z,3.13
2023-05-05T09:59:12.079Z,2.05
2023-05-05T10:07:27.556Z,1.58
2023-05-05T10:15:35.566Z,2.28
2023-05-05T10:23:44.655Z,1.63
2023-05-05T10:31:57.213Z,1.48
2023-05-05T10:48:17.594Z,1.95
2023-05-05T10:56:28.883Z,1.50
2023-05-05T11:04:36.996Z,1.45
2023-05-05T11:13:15.490Z,1.30
2023-05-05T11:21:24.614Z,1.52
2023-05-05T11:29:30.308Z,1.70
2023-05-05T11:37:40.695Z,1.48
2023-05-05T11:45:47.719Z,1.40
2023-05-05T11:53:57.329Z,1.50
2023-05-05T12:02:04.055Z,1.65
2023-05-05T12:10:13.392Z,1.63
2023-05-05T12:18:22.084Z,1.80
2023-05-05T12:26:42.120Z,1.70
2023-05-05T12:34:48.526Z,1.45
2023-05-05T12:42:56.614Z,1.88
2023-05-05T12:51:18.139Z,2.03
2023-05-05T12:59:35.320Z,2.00
2023-05-05T13:07:53.700Z,1.88
2023-05-05T13:16:01.856Z,2.20
2023-05-05T13:24:23.654Z,2.13
2023-05-05T13:32:36.871Z,1.90
2023-05-05T13:40:42.290Z,1.70
2023-05-05T13:48:52.502Z,2.42
2023-05-05T13:57:01.480Z,2.05
2023-05-05T14:05:11.102Z,2.28
2023-05-05T14:13:16.724Z,1.75
2023-05-05T14:21:24.964Z,2.33
2023-05-05T14:29:30.469Z,1.80
2023-05-05T14:37:38.462Z,1.75
2023-05-05T14:45:44.486Z,2.00
2023-05-05T14:53:52.625Z,1.70
2023-05-05T15:01:58.974Z,1.80
2023-05-05T15:10:08.456Z,1.95
2023-05-05T15:18:14.007Z,2.10
2023-05-05T15:26:24.130Z,1.80
2023-05-05T15:34:29.605Z,1.95
2023-05-05T15:42:40.517Z,2.15
2023-05-05T15:50:45.956Z,2.03
2023-05-05T15:58:54.059Z,2.10
2023-05-05T16:06:59.493Z,1.88
2023-05-05T16:15:08.679Z,1.48
2023-05-05T16:23:24.508Z,2.13
2023-05-05T16:31:34.154Z,1.92
2023-05-05T16:39:41.529Z,1.85
2023-05-05T16:47:49.959Z,2.42
2023-05-05T16:55:56.533Z,3.10
2023-05-05T17:04:04.622Z,2.40
2023-05-05T17:12:10.963Z,2.15
2023-05-05T17:20:19.281Z,1.67
2023-05-05T17:28:24.671Z,1.83
2023-05-05T17:36:35.800Z,2.08
2023-05-05T17:44:41.145Z,2.40
2023-05-05T17:52:50.807Z,2.47
2023-05-05T18:00:56.316Z,3.30
2023-05-05T18:09:04.894Z,3.65
2023-05-05T18:17:10.289Z,8.07
2023-05-05T18:25:19.407Z,12.85
2023-05-05T18:33:24.851Z,10.38
2023-05-05T18:41:33.092Z,9.15
2023-05-05T18:49:38.625Z,5.55
2023-05-05T18:57:46.743Z,5.00
2023-05-05T19:05:52.457Z,6.90
2023-05-05T19:14:01.497Z,6.82
2023-05-05T19:22:07.115Z,7.18
2023-05-05T19:30:16.533Z,8.38
2023-05-05T19:38:22.124Z,8.23
2023-05-05T19:46:30.209Z,6.93
2023-05-05T19:54:36.412Z,8.90
2023-05-05T20:02:47.846Z,6.88
2023-05-05T20:10:53.268Z,8.95
2023-05-05T20:19:01.303Z,7.97
2023-05-05T20:27:06.939Z,8.02
2023-05-05T20:35:15.370Z,8.18
2023-05-05T20:43:21.424Z,9.13
2023-05-05T20:51:32.246Z,8.65
2023-05-05T20:59:37.724Z,8.73
2023-05-05T21:07:47.130Z,9.05
2023-05-05T21:15:53.323Z,8.80
2023-05-05T21:24:01.446Z,7.35
2023-05-05T21:32:12.270Z,7.65
2023-05-05T21:40:20.769Z,6.32
2023-05-05T21:48:28.614Z,6.20
2023-05-05T21:56:37.023Z,6.20
2023-05-05T22:04:42.681Z,6.85
2023-05-05T22:12:51.196Z,6.18
2023-05-05T22:20:57.145Z,5.75
2023-05-05T22:29:05.507Z,5.15
2023-05-05T22:37:11.912Z,5.00
2023-05-05T22:45:20.270Z,5.03
2023-05-05T22:53:27.571Z,5.40
2023-05-05T23:01:36.389Z,5.78
2023-05-05T23:09:42.332Z,4.80
2023-05-05T23:17:50.600Z,5.85
2023-05-05T23:25:56.338Z,5.20
2023-05-05T23:34:04.684Z,5.57
2023-05-05T23:42:10.166Z,5.20
2023-05-05T23:50:18.080Z,4.82
2023-05-05T23:58:23.758Z,5.22
